sensor_id;sensor_type;location;lat;lon;timestamp;pressure;altitude;pressure_sealevel;temperature;humidity
61292;BME280;47165;42.664;23.368;2023-04-16T00:01:01;94495.44;;;14.34;44.80
61292;BME280;47165;42.664;23.368;2023-04-16T00:03:27;94492.94;;;14.33;44.73
61292;BME280;47165;42.664;23.368;2023-04-16T00:05:52;94481.34;;;14.35;44.46
61292;BME280;47165;42.664;23.368;2023-04-16T00:08:21;94487.19;;;14.39;44.90
61292;BME280;47165;42.664;23.368;2023-04-16T00:10:48;94486.25;;;14.40;45.19
61292;BME280;47165;42.664;23.368;2023-04-16T00:13:14;94492.72;;;14.36;45.60
61292;BME280;47165;42.664;23.368;2023-04-16T00:15:40;94478.59;;;14.37;44.63
61292;BME280;47165;42.664;23.368;2023-04-16T00:18:05;94473.72;;;14.32;45.04
61292;BME280;47165;42.664;23.368;2023-04-16T00:20:30;94485.66;;;14.36;44.41
61292;BME280;47165;42.664;23.368;2023-04-16T00:22:56;94486.75;;;14.34;44.68
61292;BME280;47165;42.664;23.368;2023-04-16T00:25:22;94482.00;;;14.16;44.42
61292;BME280;47165;42.664;23.368;2023-04-16T00:27:47;94489.63;;;14.19;44.82
61292;BME280;47165;42.664;23.368;2023-04-16T00:30:12;94488.44;;;14.23;44.93
61292;BME280;47165;42.664;23.368;2023-04-16T00:32:38;94485.09;;;14.21;44.97
61292;BME280;47165;42.664;23.368;2023-04-16T00:35:04;94475.09;;;14.15;44.43
61292;BME280;47165;42.664;23.368;2023-04-16T00:37:29;94476.75;;;14.16;44.39
61292;BME280;47165;42.664;23.368;2023-04-16T00:39:55;94485.31;;;14.18;44.58
61292;BME280;47165;42.664;23.368;2023-04-16T00:42:20;94484.16;;;14.11;44.70
61292;BME280;47165;42.664;23.368;2023-04-16T00:44:45;94478.31;;;14.07;43.33
61292;BME280;47165;42.664;23.368;2023-04-16T00:47:11;94471.75;;;14.02;42.72
61292;BME280;47165;42.664;23.368;2023-04-16T00:49:36;94475.56;;;13.98;42.34
61292;BME280;47165;42.664;23.368;2023-04-16T00:52:02;94479.28;;;13.95;42.19
61292;BME280;47165;42.664;23.368;2023-04-16T00:54:28;94484.53;;;13.95;41.92
61292;BME280;47165;42.664;23.368;2023-04-16T00:56:54;94468.53;;;13.87;41.90
61292;BME280;47165;42.664;23.368;2023-04-16T00:59:20;94475.00;;;13.83;41.49
61292;BME280;47165;42.664;23.368;2023-04-16T01:01:46;94478.44;;;13.83;41.64
61292;BME280;47165;42.664;23.368;2023-04-16T01:04:12;94477.50;;;13.73;40.98
61292;BME280;47165;42.664;23.368;2023-04-16T01:06:37;94476.06;;;13.58;41.23
61292;BME280;47165;42.664;23.368;2023-04-16T01:09:02;94477.72;;;13.59;41.46
61292;BME280;47165;42.664;23.368;2023-04-16T01:11:28;94476.06;;;13.58;42.45
61292;BME280;47165;42.664;23.368;2023-04-16T01:13:53;94486.78;;;13.55;42.45
61292;BME280;47165;42.664;23.368;2023-04-16T01:16:19;94481.91;;;13.50;42.56
61292;BME280;47165;42.664;23.368;2023-04-16T01:18:45;94477.03;;;13.45;42.74
61292;BME280;47165;42.664;23.368;2023-04-16T01:21:10;94474.63;;;13.42;42.82
61292;BME280;47165;42.664;23.368;2023-04-16T01:23:35;94476.75;;;13.48;43.05
61292;BME280;47165;42.664;23.368;2023-04-16T01:26:01;94482.72;;;13.51;43.64
61292;BME280;47165;42.664;23.368;2023-04-16T01:28:26;94472.34;;;13.49;44.10
61292;BME280;47165;42.664;23.368;2023-04-16T01:30:52;94477.50;;;13.39;44.81
61292;BME280;47165;42.664;23.368;2023-04-16T01:33:17;94472.09;;;13.30;44.97
61292;BME280;47165;42.664;23.368;2023-04-16T01:35:43;94477.28;;;13.18;46.20
61292;BME280;47165;42.664;23.368;2023-04-16T01:38:09;94461.28;;;12.99;47.38
61292;BME280;47165;42.664;23.368;2023-04-16T01:40:36;94461.84;;;12.91;48.30
61292;BME280;47165;42.664;23.368;2023-04-16T01:43:02;94466.75;;;12.96;48.35
61292;BME280;47165;42.664;23.368;2023-04-16T01:45:27;94469.72;;;12.91;48.56
61292;BME280;47165;42.664;23.368;2023-04-16T01:51:14;94462.94;;;12.88;48.11
61292;BME280;47165;42.664;23.368;2023-04-16T01:53:39;94465.31;;;12.92;48.24
61292;BME280;47165;42.664;23.368;2023-04-16T01:56:05;94458.41;;;13.02;47.87
61292;BME280;47165;42.664;23.368;2023-04-16T01:58:31;94455.53;;;12.94;47.84
61292;BME280;47165;42.664;23.368;2023-04-16T02:00:57;94462.94;;;12.88;46.26
61292;BME280;47165;42.664;23.368;2023-04-16T02:03:22;94455.16;;;12.87;45.12
61292;BME280;47165;42.664;23.368;2023-04-16T02:05:49;94457.78;;;12.87;44.96
61292;BME280;47165;42.664;23.368;2023-04-16T02:08:15;94458.97;;;12.83;45.12
61292;BME280;47165;42.664;23.368;2023-04-16T02:10:40;94459.69;;;12.85;44.57
61292;BME280;47165;42.664;23.368;2023-04-16T02:13:06;94456.81;;;12.77;44.39
61292;BME280;47165;42.664;23.368;2023-04-16T02:15:31;94460.25;;;12.77;44.60
61292;BME280;47165;42.664;23.368;2023-04-16T02:17:56;94463.72;;;12.78;44.38
61292;BME280;47165;42.664;23.368;2023-04-16T02:20:22;94460.69;;;12.60;44.41
61292;BME280;47165;42.664;23.368;2023-04-16T02:22:47;94458.06;;;12.60;44.57
61292;BME280;47165;42.664;23.368;2023-04-16T02:25:13;94454.63;;;12.59;44.48
61292;BME280;47165;42.664;23.368;2023-04-16T02:27:38;94459.13;;;12.57;44.27
61292;BME280;47165;42.664;23.368;2023-04-16T02:30:04;94454.34;;;12.51;44.83
61292;BME280;47165;42.664;23.368;2023-04-16T02:32:30;94455.28;;;12.50;44.93
61292;BME280;47165;42.664;23.368;2023-04-16T02:34:55;94454.78;;;12.45;45.04
61292;BME280;47165;42.664;23.368;2023-04-16T02:37:21;94459.41;;;12.41;45.47
61292;BME280;47165;42.664;23.368;2023-04-16T02:39:47;94462.03;;;12.41;45.45
61292;BME280;47165;42.664;23.368;2023-04-16T02:42:14;94443.59;;;12.43;45.46
61292;BME280;47165;42.664;23.368;2023-04-16T02:44:40;94446.94;;;12.45;46.09
61292;BME280;47165;42.664;23.368;2023-04-16T02:47:06;94451.44;;;12.43;45.72
61292;BME280;47165;42.664;23.368;2023-04-16T02:49:31;94436.69;;;12.42;45.72
61292;BME280;47165;42.664;23.368;2023-04-16T02:51:57;94442.44;;;12.47;45.65
61292;BME280;47165;42.664;23.368;2023-04-16T02:54:22;94438.00;;;12.47;45.33
61292;BME280;47165;42.664;23.368;2023-04-16T02:56:47;94440.75;;;12.46;45.23
61292;BME280;47165;42.664;23.368;2023-04-16T02:59:13;94442.63;;;12.44;45.43
61292;BME280;47165;42.664;23.368;2023-04-16T03:01:38;94432.16;;;12.44;45.59
61292;BME280;47165;42.664;23.368;2023-04-16T03:04:04;94438.22;;;12.44;45.29
61292;BME280;47165;42.664;23.368;2023-04-16T03:06:29;94436.31;;;12.46;45.10
61292;BME280;47165;42.664;23.368;2023-04-16T03:08:55;94441.19;;;12.40;44.93
61292;BME280;47165;42.664;23.368;2023-04-16T03:11:21;94436.69;;;12.42;45.20
61292;BME280;47165;42.664;23.368;2023-04-16T03:13:46;94444.53;;;12.42;45.32
61292;BME280;47165;42.664;23.368;2023-04-16T03:16:12;94451.03;;;12.36;45.48
61292;BME280;47165;42.664;23.368;2023-04-16T03:18:37;94458.59;;;12.41;45.28
61292;BME280;47165;42.664;23.368;2023-04-16T03:21:03;94450.72;;;12.41;45.62
61292;BME280;47165;42.664;23.368;2023-04-16T03:23:28;94446.22;;;12.43;45.52
61292;BME280;47165;42.664;23.368;2023-04-16T03:25:54;94448.94;;;12.41;45.60
61292;BME280;47165;42.664;23.368;2023-04-16T03:28:20;94442.00;;;12.40;45.29
61292;BME280;47165;42.664;23.368;2023-04-16T03:30:53;94441.91;;;12.42;45.60
61292;BME280;47165;42.664;23.368;2023-04-16T03:33:19;94447.88;;;12.44;45.79
61292;BME280;47165;42.664;23.368;2023-04-16T03:35:45;94440.53;;;12.49;45.83
61292;BME280;47165;42.664;23.368;2023-04-16T03:38:10;94450.03;;;12.50;45.51
61292;BME280;47165;42.664;23.368;2023-04-16T03:40:36;94457.28;;;12.46;45.86
61292;BME280;47165;42.664;23.368;2023-04-16T03:43:01;94460.13;;;12.43;45.57
61292;BME280;47165;42.664;23.368;2023-04-16T03:48:48;94441.91;;;12.42;46.07
61292;BME280;47165;42.664;23.368;2023-04-16T03:51:14;94451.31;;;12.44;46.42
61292;BME280;47165;42.664;23.368;2023-04-16T03:53:40;94462.41;;;12.48;45.86
61292;BME280;47165;42.664;23.368;2023-04-16T03:56:05;94453.72;;;12.47;45.97
61292;BME280;47165;42.664;23.368;2023-04-16T03:58:31;94453.72;;;12.47;46.02
61292;BME280;47165;42.664;23.368;2023-04-16T04:00:56;94461.94;;;12.43;45.72
61292;BME280;47165;42.664;23.368;2023-04-16T04:03:21;94466.53;;;12.39;46.35
61292;BME280;47165;42.664;23.368;2023-04-16T04:05:47;94465.72;;;12.39;46.26
61292;BME280;47165;42.664;23.368;2023-04-16T04:08:12;94469.06;;;12.41;46.26
61292;BME280;47165;42.664;23.368;2023-04-16T04:10:38;94469.53;;;12.46;45.42
61292;BME280;47165;42.664;23.368;2023-04-16T04:13:05;94473.59;;;12.50;45.33
61292;BME280;47165;42.664;23.368;2023-04-16T04:15:30;94479.56;;;12.52;45.08
61292;BME280;47165;42.664;23.368;2023-04-16T04:17:56;94475.75;;;12.45;45.42
61292;BME280;47165;42.664;23.368;2023-04-16T04:20:22;94479.53;;;12.41;45.64
61292;BME280;47165;42.664;23.368;2023-04-16T04:22:48;94478.81;;;12.39;45.52
61292;BME280;47165;42.664;23.368;2023-04-16T04:25:15;94484.88;;;12.39;46.40
61292;BME280;47165;42.664;23.368;2023-04-16T04:27:40;94488.31;;;12.40;47.47
61292;BME280;47165;42.664;23.368;2023-04-16T04:30:06;94489.88;;;12.42;46.82
61292;BME280;47165;42.664;23.368;2023-04-16T04:32:32;94493.56;;;12.40;46.80
61292;BME280;47165;42.664;23.368;2023-04-16T04:34:59;94489.03;;;12.42;47.64
61292;BME280;47165;42.664;23.368;2023-04-16T04:37:25;94499.41;;;12.43;46.37
61292;BME280;47165;42.664;23.368;2023-04-16T04:39:50;94481.69;;;12.47;46.30
61292;BME280;47165;42.664;23.368;2023-04-16T04:42:16;94495.63;;;12.47;46.72
61292;BME280;47165;42.664;23.368;2023-04-16T04:44:43;94496.44;;;12.48;47.84
61292;BME280;47165;42.664;23.368;2023-04-16T04:47:08;94495.72;;;12.46;47.79
61292;BME280;47165;42.664;23.368;2023-04-16T04:49:33;94504.84;;;12.40;47.15
61292;BME280;47165;42.664;23.368;2023-04-16T04:51:59;94493.16;;;12.33;46.93
61292;BME280;47165;42.664;23.368;2023-04-16T04:54:26;94503.41;;;12.36;47.89
61292;BME280;47165;42.664;23.368;2023-04-16T04:56:52;94505.19;;;12.36;47.76
61292;BME280;47165;42.664;23.368;2023-04-16T04:59:19;94502.13;;;12.42;47.63
61292;BME280;47165;42.664;23.368;2023-04-16T05:01:44;94503.69;;;12.44;47.88
61292;BME280;47165;42.664;23.368;2023-04-16T05:04:10;94499.31;;;12.45;47.69
61292;BME280;47165;42.664;23.368;2023-04-16T05:06:35;94503.25;;;12.51;48.39
61292;BME280;47165;42.664;23.368;2023-04-16T05:09:01;94503.59;;;12.46;48.15
61292;BME280;47165;42.664;23.368;2023-04-16T05:11:26;94499.78;;;12.50;48.46
61292;BME280;47165;42.664;23.368;2023-04-16T05:13:51;94495.78;;;12.57;48.41
61292;BME280;47165;42.664;23.368;2023-04-16T05:16:17;94494.63;;;12.61;47.89
61292;BME280;47165;42.664;23.368;2023-04-16T05:18:42;94497.81;;;12.65;47.10
61292;BME280;47165;42.664;23.368;2023-04-16T05:21:08;94490.59;;;12.68;47.87
61292;BME280;47165;42.664;23.368;2023-04-16T05:23:33;94492.53;;;12.78;47.21
61292;BME280;47165;42.664;23.368;2023-04-16T05:25:58;94496.72;;;12.80;46.57
61292;BME280;47165;42.664;23.368;2023-04-16T05:28:24;94491.25;;;12.83;46.46
61292;BME280;47165;42.664;23.368;2023-04-16T05:30:49;94500.88;;;12.83;46.02
61292;BME280;47165;42.664;23.368;2023-04-16T05:33:15;94496.38;;;12.85;46.27
61292;BME280;47165;42.664;23.368;2023-04-16T05:35:40;94497.34;;;12.95;46.50
61292;BME280;47165;42.664;23.368;2023-04-16T05:38:06;94499.53;;;13.01;46.52
61292;BME280;47165;42.664;23.368;2023-04-16T05:40:31;94505.13;;;13.08;46.72
61292;BME280;47165;42.664;23.368;2023-04-16T05:42:57;94477.47;;;13.04;47.30
61292;BME280;47165;42.664;23.368;2023-04-16T05:45:22;94488.13;;;13.14;46.72
61292;BME280;47165;42.664;23.368;2023-04-16T05:51:09;94494.44;;;13.22;45.98
61292;BME280;47165;42.664;23.368;2023-04-16T05:53:34;94494.34;;;13.24;46.36
61292;BME280;47165;42.664;23.368;2023-04-16T05:56:00;94496.53;;;13.30;46.85
61292;BME280;47165;42.664;23.368;2023-04-16T05:58:25;94500.59;;;13.34;47.83
61292;BME280;47165;42.664;23.368;2023-04-16T06:00:51;94495.69;;;13.41;47.77
61292;BME280;47165;42.664;23.368;2023-04-16T06:03:16;94493.69;;;13.44;47.16
61292;BME280;47165;42.664;23.368;2023-04-16T06:05:42;94501.09;;;13.51;47.76
61292;BME280;47165;42.664;23.368;2023-04-16T06:08:08;94494.53;;;13.56;47.54
61292;BME280;47165;42.664;23.368;2023-04-16T06:10:34;94489.41;;;13.55;46.85
61292;BME280;47165;42.664;23.368;2023-04-16T06:12:59;94492.63;;;13.58;47.28
61292;BME280;47165;42.664;23.368;2023-04-16T06:15:24;94483.94;;;13.58;46.66
61292;BME280;47165;42.664;23.368;2023-04-16T06:17:50;94494.31;;;13.71;45.91
61292;BME280;47165;42.664;23.368;2023-04-16T06:20:15;94482.84;;;13.72;46.14
61292;BME280;47165;42.664;23.368;2023-04-16T06:22:41;94492.03;;;13.77;45.71
61292;BME280;47165;42.664;23.368;2023-04-16T06:25:07;94490.75;;;13.83;45.23
61292;BME280;47165;42.664;23.368;2023-04-16T06:27:32;94493.00;;;13.87;45.84
61292;BME280;47165;42.664;23.368;2023-04-16T06:29:58;94487.53;;;13.91;44.80
61292;BME280;47165;42.664;23.368;2023-04-16T06:32:23;94495.13;;;13.94;44.98
61292;BME280;47165;42.664;23.368;2023-04-16T06:34:49;94487.75;;;13.99;45.31
61292;BME280;47165;42.664;23.368;2023-04-16T06:37:15;94482.03;;;14.05;45.60
61292;BME280;47165;42.664;23.368;2023-04-16T06:39:40;94485.13;;;13.99;45.28
61292;BME280;47165;42.664;23.368;2023-04-16T06:42:06;94485.59;;;14.04;45.18
61292;BME280;47165;42.664;23.368;2023-04-16T06:44:31;94478.66;;;14.14;44.99
61292;BME280;47165;42.664;23.368;2023-04-16T06:46:57;94480.91;;;14.30;44.60
61292;BME280;47165;42.664;23.368;2023-04-16T06:49:22;94489.22;;;14.35;44.49
61292;BME280;47165;42.664;23.368;2023-04-16T06:51:47;94489.09;;;14.48;44.17
61292;BME280;47165;42.664;23.368;2023-04-16T06:54:13;94489.09;;;14.59;43.84
61292;BME280;47165;42.664;23.368;2023-04-16T06:56:38;94492.63;;;14.69;43.67
61292;BME280;47165;42.664;23.368;2023-04-16T06:59:04;94487.84;;;14.75;43.89
61292;BME280;47165;42.664;23.368;2023-04-16T07:01:29;94484.09;;;14.56;44.27
61292;BME280;47165;42.664;23.368;2023-04-16T07:03:58;94480.38;;;14.59;43.97
61292;BME280;47165;42.664;23.368;2023-04-16T07:06:23;94471.09;;;14.76;44.32
61292;BME280;47165;42.664;23.368;2023-04-16T07:08:48;94463.09;;;14.77;44.27
61292;BME280;47165;42.664;23.368;2023-04-16T07:11:14;94477.75;;;14.91;44.20
61292;BME280;47165;42.664;23.368;2023-04-16T07:13:39;94483.19;;;14.99;43.65
61292;BME280;47165;42.664;23.368;2023-04-16T07:16:05;94490.59;;;15.05;43.86
61292;BME280;47165;42.664;23.368;2023-04-16T07:18:31;94495.06;;;15.15;43.80
61292;BME280;47165;42.664;23.368;2023-04-16T07:20:56;94488.72;;;15.17;43.01
61292;BME280;47165;42.664;23.368;2023-04-16T07:23:22;94493.44;;;15.23;43.01
61292;BME280;47165;42.664;23.368;2023-04-16T07:25:47;94485.72;;;15.22;42.82
61292;BME280;47165;42.664;23.368;2023-04-16T07:28:13;94491.22;;;15.19;42.96
61292;BME280;47165;42.664;23.368;2023-04-16T07:30:40;94486.16;;;15.27;42.72
61292;BME280;47165;42.664;23.368;2023-04-16T07:33:06;94472.75;;;15.30;43.27
61292;BME280;47165;42.664;23.368;2023-04-16T07:35:31;94483.06;;;15.43;43.51
61292;BME280;47165;42.664;23.368;2023-04-16T07:37:57;94477.53;;;15.46;44.23
61292;BME280;47165;42.664;23.368;2023-04-16T07:40:22;94479.44;;;15.34;43.56
61292;BME280;47165;42.664;23.368;2023-04-16T07:42:48;94481.03;;;15.46;43.24
61292;BME280;47165;42.664;23.368;2023-04-16T07:48:36;94477.66;;;15.65;42.89
61292;BME280;47165;42.664;23.368;2023-04-16T07:51:01;94485.63;;;15.75;42.40
61292;BME280;47165;42.664;23.368;2023-04-16T07:53:27;94484.41;;;15.89;41.67
61292;BME280;47165;42.664;23.368;2023-04-16T07:55:52;94486.28;;;15.98;42.08
61292;BME280;47165;42.664;23.368;2023-04-16T07:58:17;94474.78;;;16.09;42.48
61292;BME280;47165;42.664;23.368;2023-04-16T08:00:43;94483.84;;;16.16;41.88
61292;BME280;47165;42.664;23.368;2023-04-16T08:03:09;94474.00;;;16.18;42.00
61292;BME280;47165;42.664;23.368;2023-04-16T08:05:35;94466.09;;;16.18;41.66
61292;BME280;47165;42.664;23.368;2023-04-16T08:08:00;94479.44;;;16.36;41.52
61292;BME280;47165;42.664;23.368;2023-04-16T08:10:26;94474.31;;;16.35;41.78
61292;BME280;47165;42.664;23.368;2023-04-16T08:12:52;94474.34;;;16.54;42.60
61292;BME280;47165;42.664;23.368;2023-04-16T08:15:18;94465.78;;;16.72;42.16
61292;BME280;47165;42.664;23.368;2023-04-16T08:17:43;94469.63;;;16.77;42.01
61292;BME280;47165;42.664;23.368;2023-04-16T08:20:09;94460.38;;;16.93;41.23
61292;BME280;47165;42.664;23.368;2023-04-16T08:22:34;94459.28;;;17.05;41.03
61292;BME280;47165;42.664;23.368;2023-04-16T08:25:01;94462.19;;;17.12;41.07
61292;BME280;47165;42.664;23.368;2023-04-16T08:27:27;94455.63;;;17.25;41.20
61292;BME280;47165;42.664;23.368;2023-04-16T08:29:52;94445.75;;;17.37;41.15
61292;BME280;47165;42.664;23.368;2023-04-16T08:32:18;94452.00;;;17.36;40.49
61292;BME280;47165;42.664;23.368;2023-04-16T08:34:43;94446.97;;;17.53;40.50
61292;BME280;47165;42.664;23.368;2023-04-16T08:37:09;94444.84;;;17.66;39.97
61292;BME280;47165;42.664;23.368;2023-04-16T08:39:34;94448.44;;;17.84;40.08
61292;BME280;47165;42.664;23.368;2023-04-16T08:42:03;94436.38;;;18.00;39.52
61292;BME280;47165;42.664;23.368;2023-04-16T08:44:42;94441.69;;;18.27;39.14
61292;BME280;47165;42.664;23.368;2023-04-16T08:47:08;94442.13;;;18.41;38.84
61292;BME280;47165;42.664;23.368;2023-04-16T08:49:42;94435.66;;;18.53;37.95
61292;BME280;47165;42.664;23.368;2023-04-16T08:52:14;94435.44;;;18.64;38.81
61292;BME280;47165;42.664;23.368;2023-04-16T08:57:38;94437.03;;;18.75;37.96
61292;BME280;47165;42.664;23.368;2023-04-16T09:00:06;94434.06;;;18.78;37.70
61292;BME280;47165;42.664;23.368;2023-04-16T09:02:33;94431.03;;;18.83;37.40
61292;BME280;47165;42.664;23.368;2023-04-16T09:04:59;94427.69;;;18.17;37.73
61292;BME280;47165;42.664;23.368;2023-04-16T09:07:26;94420.63;;;18.36;37.60
61292;BME280;47165;42.664;23.368;2023-04-16T09:09:53;94422.16;;;18.56;37.66
61292;BME280;47165;42.664;23.368;2023-04-16T09:12:22;94422.59;;;18.69;37.98
61292;BME280;47165;42.664;23.368;2023-04-16T09:14:51;94412.59;;;18.91;37.77
61292;BME280;47165;42.664;23.368;2023-04-16T09:17:17;94416.66;;;19.03;37.53
61292;BME280;47165;42.664;23.368;2023-04-16T09:19:44;94414.19;;;18.74;37.86
61292;BME280;47165;42.664;23.368;2023-04-16T09:22:11;94410.84;;;18.82;37.64
61292;BME280;47165;42.664;23.368;2023-04-16T09:24:36;94412.72;;;18.89;37.26
61292;BME280;47165;42.664;23.368;2023-04-16T09:27:06;94411.59;;;18.92;36.90
61292;BME280;47165;42.664;23.368;2023-04-16T09:29:40;94418.66;;;18.74;37.13
61292;BME280;47165;42.664;23.368;2023-04-16T09:32:10;94415.16;;;18.83;37.78
61292;BME280;47165;42.664;23.368;2023-04-16T09:34:55;94416.09;;;19.18;37.32
61292;BME280;47165;42.664;23.368;2023-04-16T09:37:20;94416.94;;;19.44;36.78
61292;BME280;47165;42.664;23.368;2023-04-16T09:40:04;94413.16;;;19.73;36.51
61292;BME280;47165;42.664;23.368;2023-04-16T09:42:31;94412.34;;;19.81;35.72
61292;BME280;47165;42.664;23.368;2023-04-16T09:44:58;94405.34;;;20.06;35.12
61292;BME280;47165;42.664;23.368;2023-04-16T09:50:50;94402.09;;;20.20;35.70
61292;BME280;47165;42.664;23.368;2023-04-16T09:53:23;94401.25;;;20.20;34.76
61292;BME280;47165;42.664;23.368;2023-04-16T09:55:49;94397.59;;;20.13;34.63
61292;BME280;47165;42.664;23.368;2023-04-16T09:58:17;94387.53;;;20.33;34.47
61292;BME280;47165;42.664;23.368;2023-04-16T10:00:44;94384.41;;;20.37;34.37
61292;BME280;47165;42.664;23.368;2023-04-16T10:03:09;94392.22;;;20.47;34.02
61292;BME280;47165;42.664;23.368;2023-04-16T10:05:35;94389.34;;;20.32;33.71
61292;BME280;47165;42.664;23.368;2023-04-16T10:08:01;94390.97;;;20.17;33.72
61292;BME280;47165;42.664;23.368;2023-04-16T10:10:27;94384.72;;;20.34;33.35
61292;BME280;47165;42.664;23.368;2023-04-16T10:12:54;94380.25;;;19.84;33.57
61292;BME280;47165;42.664;23.368;2023-04-16T10:15:20;94386.63;;;20.07;33.79
61292;BME280;47165;42.664;23.368;2023-04-16T10:17:46;94378.25;;;20.28;33.72
61292;BME280;47165;42.664;23.368;2023-04-16T10:20:13;94372.13;;;20.36;33.27
61292;BME280;47165;42.664;23.368;2023-04-16T10:22:39;94367.19;;;20.58;33.60
61292;BME280;47165;42.664;23.368;2023-04-16T10:25:06;94374.38;;;20.65;33.04
61292;BME280;47165;42.664;23.368;2023-04-16T10:27:32;94362.44;;;20.78;33.11
61292;BME280;47165;42.664;23.368;2023-04-16T10:29:57;94370.03;;;20.73;32.80
61292;BME280;47165;42.664;23.368;2023-04-16T10:32:24;94366.03;;;19.59;34.07
61292;BME280;47165;42.664;23.368;2023-04-16T10:34:54;94362.31;;;19.43;34.93
61292;BME280;47165;42.664;23.368;2023-04-16T10:37:28;94366.63;;;19.79;34.29
61292;BME280;47165;42.664;23.368;2023-04-16T10:39:53;94356.50;;;20.08;33.12
61292;BME280;47165;42.664;23.368;2023-04-16T10:42:19;94367.16;;;20.33;33.70
61292;BME280;47165;42.664;23.368;2023-04-16T10:44:45;94365.09;;;20.69;32.76
61292;BME280;47165;42.664;23.368;2023-04-16T10:47:12;94358.44;;;21.06;31.75
61292;BME280;47165;42.664;23.368;2023-04-16T10:49:38;94364.72;;;21.22;32.08
61292;BME280;47165;42.664;23.368;2023-04-16T10:52:15;94338.50;;;21.27;30.65
61292;BME280;47165;42.664;23.368;2023-04-16T10:54:45;94348.13;;;21.20;30.60
61292;BME280;47165;42.664;23.368;2023-04-16T10:57:16;94349.44;;;21.32;30.89
61292;BME280;47165;42.664;23.368;2023-04-16T10:59:42;94351.31;;;21.79;31.46
61292;BME280;47165;42.664;23.368;2023-04-16T11:02:16;94342.97;;;22.30;31.35
61292;BME280;47165;42.664;23.368;2023-04-16T11:04:44;94348.00;;;22.71;30.84
61292;BME280;47165;42.664;23.368;2023-04-16T11:12:22;94331.72;;;23.12;28.81
61292;BME280;47165;42.664;23.368;2023-04-16T11:15:02;94332.38;;;22.91;28.45
61292;BME280;47165;42.664;23.368;2023-04-16T11:17:36;94330.78;;;23.05;28.23
61292;BME280;47165;42.664;23.368;2023-04-16T11:20:05;94329.81;;;23.21;28.52
61292;BME280;47165;42.664;23.368;2023-04-16T11:22:34;94324.41;;;22.91;27.84
61292;BME280;47165;42.664;23.368;2023-04-16T11:25:00;94327.31;;;23.04;27.67
61292;BME280;47165;42.664;23.368;2023-04-16T11:27:25;94331.44;;;23.07;28.14
61292;BME280;47165;42.664;23.368;2023-04-16T11:30:02;94319.16;;;22.83;28.87
61292;BME280;47165;42.664;23.368;2023-04-16T11:32:32;94313.56;;;22.93;29.32
61292;BME280;47165;42.664;23.368;2023-04-16T11:34:59;94307.47;;;22.46;29.57
61292;BME280;47165;42.664;23.368;2023-04-16T11:37:35;94303.53;;;22.57;29.96
61292;BME280;47165;42.664;23.368;2023-04-16T11:40:03;94302.00;;;22.62;29.81
61292;BME280;47165;42.664;23.368;2023-04-16T11:42:33;94294.09;;;22.54;28.79
61292;BME280;47165;42.664;23.368;2023-04-16T11:45:02;94296.16;;;22.67;28.83
61292;BME280;47165;42.664;23.368;2023-04-16T11:50:58;94293.91;;;22.56;29.55
61292;BME280;47165;42.664;23.368;2023-04-16T11:53:24;94288.00;;;22.14;29.86
61292;BME280;47165;42.664;23.368;2023-04-16T11:55:49;94280.78;;;22.31;30.00
61292;BME280;47165;42.664;23.368;2023-04-16T11:58:15;94275.81;;;22.51;30.35
61292;BME280;47165;42.664;23.368;2023-04-16T12:00:41;94285.56;;;22.97;29.88
61292;BME280;47165;42.664;23.368;2023-04-16T12:03:07;94277.25;;;23.15;28.52
61292;BME280;47165;42.664;23.368;2023-04-16T12:05:37;94277.56;;;22.97;28.60
61292;BME280;47165;42.664;23.368;2023-04-16T12:08:07;94272.56;;;23.02;28.68
61292;BME280;47165;42.664;23.368;2023-04-16T12:10:35;94258.28;;;23.33;28.09
61292;BME280;47165;42.664;23.368;2023-04-16T12:13:14;94263.09;;;23.74;27.60
61292;BME280;47165;42.664;23.368;2023-04-16T12:18:10;94247.84;;;24.40;26.25
61292;BME280;47165;42.664;23.368;2023-04-16T12:20:39;94243.63;;;24.67;26.55
61292;BME280;47165;42.664;23.368;2023-04-16T12:23:07;94242.22;;;24.72;25.99
61292;BME280;47165;42.664;23.368;2023-04-16T12:25:33;94242.03;;;24.52;26.34
61292;BME280;47165;42.664;23.368;2023-04-16T12:27:59;94237.25;;;24.25;26.53
61292;BME280;47165;42.664;23.368;2023-04-16T12:30:25;94243.44;;;23.89;27.12
61292;BME280;47165;42.664;23.368;2023-04-16T12:32:53;94244.19;;;23.54;27.54
61292;BME280;47165;42.664;23.368;2023-04-16T12:35:37;94235.84;;;23.27;28.14
61292;BME280;47165;42.664;23.368;2023-04-16T12:38:02;94229.63;;;23.20;28.73
61292;BME280;47165;42.664;23.368;2023-04-16T12:40:28;94239.63;;;23.18;28.96
61292;BME280;47165;42.664;23.368;2023-04-16T12:42:53;94239.81;;;23.01;29.44
61292;BME280;47165;42.664;23.368;2023-04-16T12:45:19;94230.44;;;22.67;28.65
61292;BME280;47165;42.664;23.368;2023-04-16T12:47:45;94236.22;;;22.56;29.11
61292;BME280;47165;42.664;23.368;2023-04-16T12:50:11;94233.25;;;22.51;29.91
61292;BME280;47165;42.664;23.368;2023-04-16T12:52:36;94236.91;;;22.27;30.32
61292;BME280;47165;42.664;23.368;2023-04-16T12:55:02;94230.28;;;22.23;30.25
61292;BME280;47165;42.664;23.368;2023-04-16T12:57:27;94223.53;;;22.12;30.74
61292;BME280;47165;42.664;23.368;2023-04-16T12:59:57;94221.41;;;21.84;30.68
61292;BME280;47165;42.664;23.368;2023-04-16T13:02:23;94219.97;;;21.74;31.18
61292;BME280;47165;42.664;23.368;2023-04-16T13:04:52;94221.56;;;21.60;31.73
61292;BME280;47165;42.664;23.368;2023-04-16T13:07:19;94218.97;;;21.35;32.22
61292;BME280;47165;42.664;23.368;2023-04-16T13:09:45;94211.53;;;21.22;32.51
61292;BME280;47165;42.664;23.368;2023-04-16T13:12:10;94206.59;;;21.19;32.06
61292;BME280;47165;42.664;23.368;2023-04-16T13:14:36;94213.19;;;20.84;32.33
61292;BME280;47165;42.664;23.368;2023-04-16T13:17:01;94209.91;;;20.65;33.14